Time;durP1;ratioP1;P1;durP2;ratioP2;P2;SDS_P1;SDS_P2;PMS_P1;PMS_P2;Temp;Humidity;BMP_temperature;BMP_pressure;BME280_temperature;BME280_humidity;BME280_pressure;Samples;Min_cycle;Max_cycle;Signal;HPM_P1;HPM_P2
2022/02/06 00:01:07;;;;;;;5.10;2.95;;;3.30;99.90;;;;;;4974784;28;20031;-73
2022/02/06 00:03:33;;;;;;;5.65;2.50;;;3.30;99.90;;;;;;4974525;28;20027;-72
2022/02/06 00:06:00;;;;;;;10.90;3.08;;;3.30;99.90;;;;;;4975803;28;20499;-72
2022/02/06 00:08:26;;;;;;;6.53;1.90;;;3.30;99.90;;;;;;4973422;28;20506;-72
2022/02/06 00:10:53;;;;;;;7.43;3.25;;;3.40;99.90;;;;;;4972160;28;20046;-73
2022/02/06 00:13:18;;;;;;;3.58;1.90;;;3.40;99.90;;;;;;4974063;28;20426;-72
2022/02/06 00:15:44;;;;;;;6.18;2.20;;;3.40;99.90;;;;;;4968616;28;20015;-73
2022/02/06 00:18:10;;;;;;;9.63;3.13;;;3.40;99.90;;;;;;4973587;28;20023;-73
2022/02/06 00:20:46;;;;;;;7.28;2.03;;;3.40;99.90;;;;;;4973091;28;20030;-72
2022/02/06 00:23:13;;;;;;;4.95;2.88;;;3.50;99.90;;;;;;4969695;28;20041;-72
2022/02/06 00:25:57;;;;;;;3.75;2.33;;;3.40;99.90;;;;;;4973419;28;20577;-72
2022/02/06 00:43:21;;;;;;;4.03;2.05;;;3.40;99.90;;;;;;4970913;28;20026;-73
2022/02/06 00:45:46;;;;;;;7.82;2.30;;;3.50;99.90;;;;;;4991823;28;20030;-71
2022/02/06 00:48:13;;;;;;;7.90;2.03;;;3.50;99.90;;;;;;4991157;28;20105;-73
2022/02/06 00:50:43;;;;;;;6.20;1.98;;;3.40;99.90;;;;;;4979954;28;20469;-72
2022/02/06 00:53:15;;;;;;;2.90;1.48;;;3.50;99.90;;;;;;4973653;28;20097;-71
2022/02/06 00:55:41;;;;;;;6.45;1.55;;;3.60;99.90;;;;;;4971332;28;20031;-73
2022/02/06 00:58:06;;;;;;;5.50;1.70;;;3.60;99.90;;;;;;4968194;28;20024;-74
2022/02/06 01:00:32;;;;;;;4.38;1.60;;;3.60;99.90;;;;;;4977156;28;20154;-72
2022/02/06 01:02:58;;;;;;;4.60;1.52;;;3.70;99.90;;;;;;4976537;28;20035;-72
2022/02/06 01:05:23;;;;;;;5.38;2.42;;;3.60;99.90;;;;;;4976110;28;20529;-72
2022/02/06 01:07:51;;;;;;;5.72;2.47;;;3.60;99.90;;;;;;4970315;28;20391;-73
2022/02/06 01:10:16;;;;;;;4.38;1.50;;;3.70;99.90;;;;;;4971728;28;20039;-71
2022/02/06 01:12:47;;;;;;;2.63;1.50;;;3.70;99.90;;;;;;4976876;28;20027;-73
2022/02/06 01:15:20;;;;;;;9.40;2.22;;;3.70;99.90;;;;;;4977375;28;20114;-72
2022/02/06 01:17:53;;;;;;;5.28;1.75;;;3.70;99.90;;;;;;4976738;28;20019;-72
2022/02/06 01:20:32;;;;;;;6.03;2.08;;;3.80;99.90;;;;;;4977558;28;20034;-73
2022/02/06 01:23:04;;;;;;;6.03;1.67;;;3.90;99.90;;;;;;4975440;28;20027;-73
2022/02/06 01:25:36;;;;;;;3.90;1.25;;;3.90;99.90;;;;;;4976538;28;20026;-73
2022/02/06 01:28:08;;;;;;;6.88;1.60;;;3.90;99.90;;;;;;4976037;28;20019;-73
2022/02/06 01:33:12;;;;;;;6.38;1.75;;;4.10;99.90;;;;;;4974419;28;20037;-73
2022/02/06 01:35:49;;;;;;;6.75;1.50;;;4.10;99.90;;;;;;4979708;28;20471;-71
2022/02/06 01:40:54;;;;;;;6.75;1.85;;;4.20;99.90;;;;;;4974206;28;20034;-74
2022/02/06 01:43:26;;;;;;;5.40;1.30;;;4.30;99.90;;;;;;4971279;28;20050;-72
2022/02/06 02:02:30;;;;;;;3.80;1.52;;;4.10;99.90;;;;;;4972905;28;20108;-73
2022/02/06 02:05:32;;;;;;;4.93;1.80;;;4.10;99.90;;;;;;4987703;28;20086;-73
2022/02/06 02:10:53;;;;;;;5.30;1.80;;;4.20;99.90;;;;;;4969994;28;20498;-73
2022/02/06 02:13:48;;;;;;;8.10;1.98;;;4.20;99.90;;;;;;4980629;28;20026;-73
2022/02/06 02:19:36;;;;;;;5.88;1.42;;;4.20;99.90;;;;;;4965302;28;20042;-73
2022/02/06 02:25:04;;;;;;;2.83;1.90;;;4.20;99.90;;;;;;4991171;28;20066;-74
2022/02/06 02:28:01;;;;;;;4.10;1.70;;;4.30;99.90;;;;;;4994591;28;20086;-73
2022/02/06 02:48:17;;;;;;;3.33;1.70;;;4.70;99.90;;;;;;4990349;28;20037;-74
2022/02/06 02:50:48;;;;;;;2.47;1.38;;;4.70;99.90;;;;;;4992198;28;20109;-74
2022/02/06 03:04:01;;;;;;;;;;;4.70;99.90;;;;;;4932185;29;20030;-73
2022/02/06 03:06:27;;;;;;;4.15;1.42;;;4.70;99.90;;;;;;4966742;28;19906;-73
2022/02/06 03:08:54;;;;;;;6.30;1.63;;;4.70;99.90;;;;;;4967206;28;20066;-72
2022/02/06 03:11:20;;;;;;;2.38;1.42;;;4.70;99.90;;;;;;4968097;28;20390;-73
2022/02/06 03:13:54;;;;;;;5.32;1.92;;;4.80;99.90;;;;;;4963574;28;20015;-73
2022/02/06 03:16:25;;;;;;;3.63;1.02;;;4.80;99.90;;;;;;4988942;28;20086;-73
2022/02/06 03:21:23;;;;;;;2.67;1.30;;;4.80;99.90;;;;;;4974766;28;20027;-72
2022/02/06 03:23:52;;;;;;;3.15;1.17;;;4.80;99.90;;;;;;4970669;28;20085;-72
2022/02/06 03:26:22;;;;;;;6.78;2.58;;;4.70;99.90;;;;;;4974985;28;20023;-72
2022/02/06 03:28:48;;;;;;;4.05;1.30;;;4.70;99.90;;;;;;4968872;28;20019;-74
2022/02/06 03:31:14;;;;;;;3.17;1.10;;;4.70;99.90;;;;;;4965783;28;20034;-72
2022/02/06 03:33:41;;;;;;;4.45;1.10;;;4.60;99.90;;;;;;4970433;28;20023;-73
2022/02/06 03:36:07;;;;;;;3.55;1.38;;;4.60;99.90;;;;;;4972055;28;20087;-73
2022/02/06 03:38:33;;;;;;;3.78;1.30;;;4.60;99.90;;;;;;4973645;28;20419;-73
2022/02/06 03:41:04;;;;;;;3.67;1.38;;;4.50;99.90;;;;;;4978057;28;20027;-73
2022/02/06 03:46:18;;;;;;;1.90;1.10;;;4.50;99.90;;;;;;4970707;28;20567;-73
2022/02/06 03:49:02;;;;;;;3.22;1.23;;;4.50;99.90;;;;;;4990000;28;20627;-72
2022/02/06 03:51:36;;;;;;;4.35;1.35;;;4.60;99.90;;;;;;4987199;28;20027;-71
2022/02/06 03:54:04;;;;;;;4.93;1.00;;;4.60;99.90;;;;;;4969808;28;20109;-73
2022/02/06 03:56:31;;;;;;;5.18;1.65;;;4.60;99.90;;;;;;4972360;28;20054;-73
2022/02/06 03:59:00;;;;;;;4.88;0.98;;;4.70;99.90;;;;;;4981590;28;20085;-73
2022/02/06 04:01:25;;;;;;;4.53;1.30;;;4.70;99.90;;;;;;4968501;28;20027;-73
2022/02/06 04:03:51;;;;;;;4.15;1.30;;;4.60;99.90;;;;;;4972783;28;20398;-73
2022/02/06 04:06:17;;;;;;;4.80;1.67;;;4.60;99.90;;;;;;4966126;28;20574;-73
2022/02/06 04:08:43;;;;;;;6.25;2.78;;;4.60;99.90;;;;;;4969066;28;20367;-73
2022/02/06 04:11:14;;;;;;;3.38;1.63;;;4.60;99.90;;;;;;4970802;28;20110;-73
2022/02/06 04:13:54;;;;;;;6.40;1.10;;;4.70;99.90;;;;;;4969031;28;20655;-73
2022/02/06 04:16:27;;;;;;;8.20;1.70;;;4.70;99.90;;;;;;4968230;28;20035;-73
2022/02/06 04:19:04;;;;;;;3.72;1.10;;;4.70;99.90;;;;;;4969045;28;20049;-72
2022/02/06 04:21:31;;;;;;;3.63;1.20;;;4.70;99.90;;;;;;4970540;28;20176;-75
2022/02/06 04:23:57;;;;;;;4.65;1.30;;;4.80;99.90;;;;;;4967822;28;20042;-72
2022/02/06 04:26:22;;;;;;;2.92;1.25;;;4.90;99.90;;;;;;4974747;28;20023;-73
2022/02/06 04:28:48;;;;;;;2.60;1.00;;;4.90;99.90;;;;;;4973984;28;20046;-73
2022/02/06 04:31:14;;;;;;;1.92;0.95;;;5.00;99.90;;;;;;4969594;28;20027;-73
2022/02/06 04:33:39;;;;;;;3.72;1.35;;;5.10;99.90;;;;;;4968376;28;20118;-74
2022/02/06 04:36:10;;;;;;;1.30;0.90;;;5.10;99.90;;;;;;4972732;28;20034;-72
2022/02/06 04:39:00;;;;;;;3.70;1.13;;;5.20;99.90;;;;;;4966106;28;20501;-72
2022/02/06 04:47:21;;;;;;;1.92;0.98;;;5.10;99.90;;;;;;4971592;28;20105;-73
2022/02/06 04:55:22;;;;;;;3.92;1.33;;;5.10;99.90;;;;;;4971663;28;20522;-73
2022/02/06 05:14:36;;;;;;;4.68;1.00;;;5.20;99.90;;;;;;4924529;28;20191;-73
2022/02/06 05:22:34;;;;;;;4.57;1.17;;;5.10;99.90;;;;;;4970619;28;20086;-73
2022/02/06 05:28:22;;;;;;;3.38;1.35;;;5.20;99.90;;;;;;4991184;28;20085;-73
2022/02/06 05:30:56;;;;;;;6.80;1.00;;;5.10;99.90;;;;;;4985084;28;20034;-72
2022/02/06 05:33:22;;;;;;;7.40;1.48;;;5.10;99.90;;;;;;4977106;28;20054;-72
2022/02/06 05:35:48;;;;;;;7.53;1.23;;;5.00;99.90;;;;;;4986572;28;20027;-72
2022/02/06 05:38:13;;;;;;;3.45;1.35;;;5.00;99.90;;;;;;4983533;28;20031;-72
2022/02/06 05:40:39;;;;;;;3.55;1.05;;;5.00;99.90;;;;;;4971278;28;20027;-73
2022/02/06 05:43:05;;;;;;;2.60;0.90;;;5.10;99.90;;;;;;4970815;28;20039;-72
2022/02/06 05:45:31;;;;;;;3.85;1.15;;;5.20;99.90;;;;;;4969654;28;20114;-73
2022/02/06 05:47:56;;;;;;;2.35;1.08;;;5.20;99.90;;;;;;4974398;28;20031;-73
2022/02/06 05:50:23;;;;;;;5.88;1.30;;;5.20;99.90;;;;;;4972749;28;20035;-74
2022/02/06 05:52:50;;;;;;;6.47;1.20;;;5.20;99.90;;;;;;4972167;28;20027;-73
2022/02/06 05:55:15;;;;;;;5.07;2.35;;;5.20;99.90;;;;;;4991410;28;20033;-73
2022/02/06 05:57:42;;;;;;;5.72;2.38;;;5.20;99.90;;;;;;4972747;28;20023;-73
2022/02/06 06:00:09;;;;;;;5.93;1.23;;;5.30;99.90;;;;;;4978044;28;20027;-74
2022/02/06 06:02:36;;;;;;;3.70;0.88;;;5.40;99.90;;;;;;4974413;28;20089;-74
2022/02/06 06:05:02;;;;;;;4.90;1.52;;;5.30;99.90;;;;;;4977352;28;20144;-74
2022/02/06 06:07:27;;;;;;;5.93;1.90;;;5.40;99.90;;;;;;4973599;28;20514;-73
2022/02/06 06:09:53;;;;;;;4.20;1.00;;;5.50;99.90;;;;;;4975463;28;20038;-72
2022/02/06 06:12:18;;;;;;;7.50;1.83;;;5.60;99.90;;;;;;4975345;28;20037;-72
2022/02/06 06:14:47;;;;;;;4.00;1.15;;;5.60;99.90;;;;;;4975265;28;20034;-72
2022/02/06 06:17:12;;;;;;;2.42;1.00;;;5.50;99.90;;;;;;4987911;28;20442;-72
2022/02/06 06:19:42;;;;;;;2.80;1.05;;;5.60;99.90;;;;;;4971429;28;20034;-72
2022/02/06 06:22:10;;;;;;;4.15;1.55;;;5.50;99.90;;;;;;4985590;28;20033;-72
2022/02/06 06:24:40;;;;;;;4.65;1.58;;;5.50;99.90;;;;;;4987648;28;20038;-73
2022/02/06 06:27:06;;;;;;;5.68;1.13;;;5.50;99.90;;;;;;4976727;28;20038;-74
2022/02/06 06:29:32;;;;;;;2.90;0.95;;;5.50;99.90;;;;;;4975855;28;20402;-73
2022/02/06 06:31:57;;;;;;;7.25;1.50;;;5.60;99.90;;;;;;4985574;28;20051;-73
2022/02/06 06:34:23;;;;;;;4.53;1.85;;;5.60;99.90;;;;;;4969598;28;20089;-73
2022/02/06 06:36:50;;;;;;;5.32;1.95;;;5.50;99.90;;;;;;4974109;28;20023;-72
2022/02/06 06:39:22;;;;;;;10.35;2.40;;;5.50;99.90;;;;;;4975120;28;20722;-74
2022/02/06 06:41:48;;;;;;;4.53;1.38;;;5.50;99.90;;;;;;4973268;28;20034;-74
2022/02/06 06:44:13;;;;;;;2.33;1.42;;;5.60;99.90;;;;;;4974730;28;20098;-73
2022/02/06 06:46:39;;;;;;;3.03;1.48;;;5.60;99.90;;;;;;4971145;28;20059;-74
2022/02/06 06:49:04;;;;;;;3.08;1.08;;;5.50;99.90;;;;;;4972535;28;20034;-71
2022/02/06 06:51:30;;;;;;;3.58;1.05;;;5.60;99.90;;;;;;4969863;28;20026;-79
2022/02/06 06:53:55;;;;;;;6.18;1.30;;;5.60;99.90;;;;;;4972582;28;20023;-75
2022/02/06 06:56:47;;;;;;;5.38;1.45;;;5.60;99.90;;;;;;4979415;28;20078;-76
2022/02/06 06:59:24;;;;;;;2.33;1.13;;;5.50;99.90;;;;;;4980206;28;20019;-76
2022/02/06 07:01:54;;;;;;;3.83;1.10;;;5.50;99.90;;;;;;4978341;28;20408;-79
2022/02/06 07:04:20;;;;;;;5.80;1.63;;;5.50;99.90;;;;;;4984031;28;20022;-77
2022/02/06 07:06:45;;;;;;;2.55;1.30;;;5.60;99.90;;;;;;4975908;28;20493;-76
2022/02/06 07:09:11;;;;;;;2.70;1.17;;;5.60;99.90;;;;;;4975625;28;20086;-77
2022/02/06 07:11:36;;;;;;;6.30;1.30;;;5.60;99.90;;;;;;4976976;28;20062;-77
2022/02/06 07:14:02;;;;;;;5.15;1.48;;;5.70;99.90;;;;;;4976893;28;20035;-76
2022/02/06 07:16:27;;;;;;;2.45;0.88;;;5.60;99.90;;;;;;4979401;28;20042;-77
2022/02/06 07:18:53;;;;;;;4.28;1.35;;;5.70;99.90;;;;;;4979192;28;20027;-77
2022/02/06 07:21:18;;;;;;;4.57;0.88;;;5.70;99.90;;;;;;4979289;28;20054;-78
2022/02/06 07:23:44;;;;;;;2.53;0.95;;;5.70;99.90;;;;;;4973160;28;20054;-79
2022/02/06 07:26:17;;;;;;;3.92;1.20;;;5.80;99.90;;;;;;4977965;28;20050;-77
2022/02/06 07:28:47;;;;;;;5.65;1.70;;;5.80;99.90;;;;;;4970849;28;20041;-79
2022/02/06 07:31:13;;;;;;;;;;;5.90;99.90;;;;;;4977710;28;20023;-77
2022/02/06 07:33:39;;;;;;;3.33;1.15;;;6.00;99.90;;;;;;4979110;28;20271;-77
2022/02/06 07:36:05;;;;;;;3.58;1.10;;;6.00;99.90;;;;;;4989709;28;20071;-77
2022/02/06 07:38:31;;;;;;;3.70;2.00;;;6.10;99.90;;;;;;4998294;28;20403;-78
2022/02/06 07:40:57;;;;;;;4.25;1.20;;;6.10;99.90;;;;;;4980944;28;20027;-78
2022/02/06 07:43:22;;;;;;;8.35;1.52;;;6.10;99.90;;;;;;4996682;28;20023;-80
2022/02/06 07:45:48;;;;;;;2.88;1.27;;;6.10;99.90;;;;;;4983678;28;20035;-79
2022/02/06 07:48:15;;;;;;;5.07;1.52;;;6.20;99.90;;;;;;4987502;28;20031;-83
2022/02/06 07:50:41;;;;;;;6.93;1.35;;;6.20;99.90;;;;;;4990076;28;20053;-82
2022/02/06 07:53:06;;;;;;;7.72;1.15;;;6.20;99.90;;;;;;4997359;28;20023;-81
2022/02/06 07:55:32;;;;;;;5.63;1.60;;;6.20;99.90;;;;;;5004724;28;20035;-78
2022/02/06 07:57:58;;;;;;;3.63;1.05;;;6.20;99.90;;;;;;4993257;28;20039;-84
2022/02/06 08:00:24;;;;;;;4.85;1.60;;;6.20;99.90;;;;;;4990287;28;20030;-85
2022/02/06 08:02:49;;;;;;;2.60;1.25;;;6.30;99.90;;;;;;4990384;28;20030;-81
2022/02/06 08:05:18;;;;;;;3.17;1.75;;;6.30;99.90;;;;;;4985175;28;20036;-82
2022/02/06 08:07:46;;;;;;;4.30;1.35;;;6.50;99.90;;;;;;4986138;28;20047;-86
2022/02/06 08:12:55;;;;;;;4.47;1.77;;;6.50;99.90;;;;;;4967840;23;20039;-88
2022/02/06 08:15:22;;;;;;;6.13;1.33;;;6.50;99.90;;;;;;5000076;23;21001;-87
2022/02/06 08:17:48;;;;;;;4.43;1.15;;;6.60;99.90;;;;;;4959778;28;20064;-88
2022/02/06 08:20:18;;;;;;;6.40;1.20;;;6.60;99.90;;;;;;5048212;23;20015;-87
2022/02/06 08:22:44;;;;;;;3.92;1.30;;;6.60;99.90;;;;;;4990442;28;20027;-83
2022/02/06 08:25:13;;;;;;;3.10;1.00;;;6.60;99.90;;;;;;4972244;29;20034;-87
2022/02/06 08:27:39;;;;;;;4.25;1.73;;;6.70;99.90;;;;;;4956835;29;20034;-73
2022/02/06 08:30:06;;;;;;;3.95;1.17;;;6.80;99.90;;;;;;4955695;28;20027;-75
2022/02/06 08:32:33;;;;;;;4.78;1.48;;;6.70;99.90;;;;;;4948361;29;20036;-76
2022/02/06 08:34:59;;;;;;;3.22;1.02;;;6.80;99.90;;;;;;4957697;29;20030;-76
2022/02/06 08:37:25;;;;;;;5.50;1.30;;;6.80;99.90;;;;;;4963360;28;20015;-79
2022/02/06 08:39:51;;;;;;;4.97;1.10;;;6.80;99.90;;;;;;4961245;28;20389;-79
2022/02/06 08:42:18;;;;;;;4.80;1.35;;;6.90;99.90;;;;;;4971536;28;20488;-78
2022/02/06 08:44:46;;;;;;;3.25;1.00;;;7.00;99.90;;;;;;4969554;29;20030;-78
2022/02/06 08:47:14;;;;;;;6.88;1.13;;;7.10;99.90;;;;;;4961242;29;20062;-78
2022/02/06 08:49:41;;;;;;;6.07;1.20;;;7.30;99.90;;;;;;4958690;28;20050;-78
2022/02/06 08:52:08;;;;;;;4.07;1.20;;;7.30;99.90;;;;;;4958107;29;20092;-78
2022/02/06 08:54:36;;;;;;;4.10;1.30;;;7.40;99.90;;;;;;4959170;29;20023;-78
2022/02/06 08:57:12;;;;;;;3.83;1.25;;;7.40;99.90;;;;;;4959028;28;20020;-80
2022/02/06 08:59:38;;;;;;;2.38;1.38;;;7.40;99.90;;;;;;4958904;28;20054;-81
2022/02/06 09:02:04;;;;;;;4.70;0.80;;;7.50;99.90;;;;;;4951091;29;20496;-82
2022/02/06 09:04:29;;;;;;;5.32;1.52;;;7.50;99.90;;;;;;4961678;29;20046;-80
2022/02/06 09:06:59;;;;;;;4.35;1.17;;;7.50;99.90;;;;;;4961038;29;20032;-77
2022/02/06 09:09:26;;;;;;;2.92;1.00;;;7.60;99.90;;;;;;4971776;28;20031;-78
2022/02/06 09:11:53;;;;;;;1.70;0.82;;;7.60;99.90;;;;;;4974476;28;20027;-78
2022/02/06 09:14:21;;;;;;;7.50;1.20;;;7.50;99.90;;;;;;4977002;29;20043;-76
2022/02/06 09:16:47;;;;;;;8.75;1.00;;;7.60;99.90;;;;;;4973209;28;20027;-75
2022/02/06 09:19:13;;;;;;;2.85;0.88;;;7.60;99.90;;;;;;4979799;28;20019;-80
2022/02/06 09:21:39;;;;;;;4.63;1.40;;;7.60;99.90;;;;;;4973692;28;20028;-81
2022/02/06 09:24:06;;;;;;;3.05;1.98;;;7.50;99.90;;;;;;5084483;23;20114;-81
2022/02/06 09:26:32;;;;;;;7.80;1.45;;;7.40;99.90;;;;;;4973537;28;20028;-83
2022/02/06 09:28:58;;;;;;;2.35;0.98;;;7.50;99.90;;;;;;4979492;28;20031;-82
2022/02/06 09:31:26;;;;;;;4.05;1.85;;;7.40;99.90;;;;;;4959963;29;20028;-80
2022/02/06 09:36:18;;;;;;;3.90;1.63;;;7.40;99.90;;;;;;4961828;28;20031;-82
2022/02/06 09:38:43;;;;;;;3.65;1.10;;;7.50;99.90;;;;;;4962710;28;20024;-82
2022/02/06 09:41:09;;;;;;;3.45;1.55;;;7.50;99.90;;;;;;4962253;28;20063;-80
2022/02/06 09:43:38;;;;;;;8.20;1.48;;;7.50;99.90;;;;;;4961417;28;20020;-82
2022/02/06 09:46:04;;;;;;;3.10;1.05;;;7.60;99.90;;;;;;4953537;29;20119;-83
2022/02/06 09:48:31;;;;;;;3.85;0.80;;;7.60;99.90;;;;;;4948415;29;20031;-82
2022/02/06 09:50:59;;;;;;;4.22;0.90;;;7.60;99.90;;;;;;4963101;29;20046;-81
2022/02/06 09:53:29;;;;;;;3.60;0.77;;;7.70;99.90;;;;;;4931737;29;20031;-83
2022/02/06 09:55:57;;;;;;;3.03;0.98;;;7.80;99.90;;;;;;4949009;29;20079;-81
2022/02/06 10:00:51;;;;;;;3.88;0.82;;;7.90;99.90;;;;;;4956242;29;20059;-82
2022/02/06 10:03:19;;;;;;;2.92;0.90;;;8.10;99.90;;;;;;4958539;29;20024;-83
2022/02/06 10:05:46;;;;;;;8.00;1.30;;;8.20;99.90;;;;;;4958238;28;20023;-82
2022/02/06 10:08:25;;;;;;;5.22;0.73;;;8.20;99.90;;;;;;4962125;28;20012;-83
2022/02/06 10:11:15;;;;;;;3.80;0.98;;;8.30;99.90;;;;;;4963161;28;20032;-83
2022/02/06 10:13:42;;;;;;;3.58;1.40;;;8.40;99.90;;;;;;4955636;29;20019;-82
2022/02/06 10:16:11;;;;;;;2.53;0.80;;;8.40;99.90;;;;;;4949342;29;20032;-81
2022/02/06 10:18:43;;;;;;;5.28;1.08;;;8.20;99.90;;;;;;4965983;29;20087;-82
2022/02/06 10:21:13;;;;;;;2.75;1.35;;;8.30;99.90;;;;;;4954765;29;20035;-83
2022/02/06 10:23:46;;;;;;;4.07;1.60;;;8.30;99.90;;;;;;4949897;29;20123;-86
2022/02/06 10:26:25;;;;;;;3.67;1.00;;;8.30;99.90;;;;;;4946630;29;20012;-83
2022/02/06 10:31:55;;;;;;;4.13;1.10;;;8.10;99.90;;;;;;4957868;29;20011;-83
2022/02/06 10:34:25;;;;;;;5.35;1.98;;;8.20;99.90;;;;;;4954678;29;20027;-80
2022/02/06 10:37:23;;;;;;;4.15;1.40;;;8.20;99.90;;;;;;4945301;29;20028;-81
2022/02/06 10:40:05;;;;;;;4.38;0.82;;;8.30;99.90;;;;;;4945621;29;20106;-82
2022/02/06 10:42:43;;;;;;;2.35;0.82;;;8.50;99.90;;;;;;4947842;29;20016;-79
2022/02/06 10:45:25;;;;;;;1.80;0.73;;;8.60;99.90;;;;;;4949630;29;20032;-83
2022/02/06 10:47:54;;;;;;;5.28;1.88;;;8.70;99.90;;;;;;4945028;29;20063;-80
2022/02/06 10:50:24;;;;;;;2.45;0.88;;;8.80;99.90;;;;;;4951327;29;20083;-79
2022/02/06 10:52:49;;;;;;;3.28;1.10;;;8.70;99.90;;;;;;4951298;29;20032;-81
2022/02/06 10:55:18;;;;;;;3.67;1.00;;;8.70;99.90;;;;;;4951216;29;20035;-83
2022/02/06 10:57:59;;;;;;;1.85;0.70;;;8.70;99.90;;;;;;4950879;29;20104;-81
2022/02/06 11:00:30;;;;;;;2.58;0.80;;;8.80;99.90;;;;;;4946077;29;20411;-81
2022/02/06 11:03:09;;;;;;;;;;;8.90;99.90;;;;;;4944302;29;20411;-81
2022/02/06 11:05:53;;;;;;;2.08;0.77;;;8.90;99.90;;;;;;4952551;29;19907;-82
2022/02/06 11:08:29;;;;;;;2.70;0.65;;;8.80;99.90;;;;;;4945028;29;20024;-79
2022/02/06 11:11:15;;;;;;;4.90;1.00;;;8.90;99.90;;;;;;4960309;28;20095;-75
2022/02/06 11:13:40;;;;;;;3.65;1.00;;;8.90;99.90;;;;;;4958780;28;20035;-75
2022/02/06 11:16:17;;;;;;;3.80;1.23;;;9.10;99.90;;;;;;4969570;28;20035;-83
2022/02/06 11:18:57;;;;;;;1.52;0.80;;;9.00;99.90;;;;;;4953899;28;20047;-84
2022/02/06 11:21:24;;;;;;;9.40;1.42;;;9.00;99.90;;;;;;4951348;29;20053;-78
2022/02/06 11:23:55;;;;;;;2.70;0.93;;;8.90;99.90;;;;;;4947806;29;20035;-82
2022/02/06 11:26:25;;;;;;;;;;;8.90;99.90;;;;;;4946402;29;20067;-79
2022/02/06 11:28:53;;;;;;;2.72;0.93;;;8.90;99.90;;;;;;4946032;29;19966;-81
2022/02/06 11:31:20;;;;;;;2.47;1.77;;;8.80;99.90;;;;;;4946906;29;20028;-80
2022/02/06 11:33:47;;;;;;;4.57;0.73;;;8.80;99.90;;;;;;4945897;29;20051;-81
2022/02/06 11:36:20;;;;;;;1.30;0.70;;;8.70;99.90;;;;;;4946695;29;20024;-82
2022/02/06 11:45:18;;;;;;;2.20;0.60;;;8.90;99.90;;;;;;4942169;29;20105;-79
2022/02/06 11:47:49;;;;;;;2.35;0.80;;;8.90;99.90;;;;;;4947221;29;20020;-82
2022/02/06 11:50:15;;;;;;;2.90;1.15;;;9.10;99.90;;;;;;4960516;29;20106;-79
2022/02/06 11:52:58;;;;;;;2.65;0.95;;;9.00;99.90;;;;;;4957715;28;20027;-81
2022/02/06 11:55:49;;;;;;;1.05;0.73;;;9.00;99.90;;;;;;4949244;29;20539;-83
2022/02/06 11:58:33;;;;;;;1.27;0.60;;;9.10;99.90;;;;;;4950029;29;20019;-82
2022/02/06 12:01:08;;;;;;;4.30;2.35;;;8.90;99.90;;;;;;4950947;29;20252;-81
2022/02/06 12:03:52;;;;;;;4.18;1.25;;;9.00;99.90;;;;;;4946055;29;20107;-84
2022/02/06 12:06:19;;;;;;;2.17;0.70;;;9.10;99.90;;;;;;4950253;29;20038;-82
2022/02/06 12:09:00;;;;;;;1.60;0.77;;;9.00;99.90;;;;;;4949473;29;20035;-81
2022/02/06 12:11:27;;;;;;;2.25;0.77;;;9.00;99.90;;;;;;4951541;29;20027;-78
2022/02/06 12:14:12;;;;;;;2.85;0.80;;;9.10;99.90;;;;;;4947806;29;20116;-81
2022/02/06 12:16:51;;;;;;;2.00;0.93;;;9.00;99.90;;;;;;4948745;29;20027;-79
2022/02/06 12:19:31;;;;;;;1.75;0.70;;;9.10;99.90;;;;;;4947944;29;20035;-79
2022/02/06 12:22:18;;;;;;;2.10;0.68;;;9.10;99.90;;;;;;4952503;29;20052;-78
2022/02/06 12:24:43;;;;;;;3.60;1.50;;;9.30;99.90;;;;;;4946359;29;20403;-76
2022/02/06 12:27:27;;;;;;;3.80;0.88;;;9.20;99.90;;;;;;4944387;29;20015;-76
2022/02/06 12:29:59;;;;;;;3.15;1.33;;;9.30;99.90;;;;;;4952538;28;20228;-77
2022/02/06 12:32:28;;;;;;;2.28;0.68;;;9.30;99.90;;;;;;4956760;28;20028;-77
2022/02/06 12:37:39;;;;;;;0.90;0.57;;;9.20;99.90;;;;;;4951345;28;20035;-78
2022/02/06 12:40:06;;;;;;;1.08;0.60;;;9.20;99.90;;;;;;4945469;29;20024;-78
2022/02/06 12:42:42;;;;;;;1.70;0.50;;;9.00;99.90;;;;;;4949544;29;20092;-78
2022/02/06 12:45:11;;;;;;;1.23;0.60;;;9.10;99.90;;;;;;4952725;29;20036;-78
2022/02/06 12:47:43;;;;;;;1.20;0.63;;;9.10;99.90;;;;;;4953187;28;20027;-77
2022/02/06 12:50:24;;;;;;;0.95;0.50;;;9.10;99.90;;;;;;4947650;28;20028;-77
2022/02/06 12:52:51;;;;;;;1.53;0.67;;;9.10;99.90;;;;;;4945087;29;20047;-79
2022/02/06 12:55:18;;;;;;;1.60;0.75;;;9.10;99.90;;;;;;4947314;29;20838;-77
2022/02/06 12:57:48;;;;;;;1.23;0.70;;;9.10;99.90;;;;;;4941409;29;20031;-77
2022/02/06 13:00:46;;;;;;;0.50;0.50;;;8.90;99.90;;;;;;4944202;29;20039;-78
2022/02/06 13:03:36;;;;;;;1.38;0.70;;;8.90;99.90;;;;;;4943104;29;20046;-78
2022/02/06 13:06:06;;;;;;;1.10;0.70;;;8.80;99.90;;;;;;4939115;29;20038;-77
2022/02/06 13:08:36;;;;;;;3.97;0.52;;;8.90;99.90;;;;;;4943846;29;20280;-77
2022/02/06 13:11:06;;;;;;;1.50;0.50;;;8.90;99.90;;;;;;4943441;29;20023;-78
2022/02/06 13:13:45;;;;;;;1.20;0.40;;;9.00;99.90;;;;;;4938070;29;20036;-79
2022/02/06 13:22:02;;;;;;;1.40;0.80;;;8.60;99.90;;;;;;4936770;29;20055;-76
2022/02/06 13:33:01;;;;;;;;;;;8.60;99.90;;;;;;4936151;29;20074;-74
2022/02/06 13:38:01;;;;;;;1.85;0.52;;;8.60;99.90;;;;;;4939169;29;20027;-75
2022/02/06 13:40:31;;;;;;;0.50;0.50;;;8.60;99.90;;;;;;4934235;29;20443;-74
2022/02/06 13:42:58;;;;;;;1.67;0.63;;;8.60;99.90;;;;;;4935667;29;20031;-75
2022/02/06 13:45:25;;;;;;;1.52;0.40;;;8.50;99.90;;;;;;4940181;29;20111;-77
2022/02/06 13:47:54;;;;;;;0.88;0.50;;;8.50;99.90;;;;;;4935488;29;20395;-77
2022/02/06 13:50:19;;;;;;;0.90;0.50;;;8.50;99.90;;;;;;4970072;23;20044;-73
2022/02/06 13:52:46;;;;;;;1.02;0.50;;;8.30;99.90;;;;;;4972214;28;20031;-74
2022/02/06 13:55:14;;;;;;;2.10;0.70;;;8.30;99.90;;;;;;4956752;28;20157;-73
2022/02/06 13:57:41;;;;;;;1.83;0.60;;;8.10;99.90;;;;;;4959968;28;20035;-75
2022/02/06 14:00:17;;;;;;;2.00;0.80;;;8.20;99.90;;;;;;4965225;28;20102;-77
2022/02/06 14:02:56;;;;;;;1.80;0.50;;;8.10;99.90;;;;;;4965342;28;20034;-78
2022/02/06 14:05:26;;;;;;;2.75;0.57;;;8.00;99.90;;;;;;4968268;29;20035;-78
2022/02/06 14:08:11;;;;;;;0.50;0.50;;;8.00;99.90;;;;;;4971955;28;20063;-78
2022/02/06 14:10:47;;;;;;;0.47;0.47;;;7.90;99.90;;;;;;4971108;28;20027;-79
2022/02/06 14:13:27;;;;;;;0.95;0.50;;;7.80;99.90;;;;;;4969241;28;20034;-75
2022/02/06 14:16:12;;;;;;;2.53;0.68;;;7.70;99.90;;;;;;4962411;28;20034;-75
2022/02/06 14:18:49;;;;;;;1.52;0.63;;;7.60;99.90;;;;;;4961443;28;20082;-75
2022/02/06 14:21:16;;;;;;;0.38;0.35;;;7.60;99.90;;;;;;4966739;28;20074;-76
2022/02/06 14:23:42;;;;;;;0.93;0.60;;;7.60;99.90;;;;;;4965850;28;20024;-75
2022/02/06 14:26:17;;;;;;;0.45;0.45;;;7.50;99.90;;;;;;4971831;29;20031;-75
2022/02/06 14:28:50;;;;;;;1.23;0.50;;;7.50;99.90;;;;;;4975735;28;20038;-76
2022/02/06 14:31:27;;;;;;;0.77;0.52;;;7.40;99.90;;;;;;4971403;28;20023;-75
2022/02/06 14:34:13;;;;;;;1.00;0.50;;;7.40;99.90;;;;;;4973577;28;20087;-75
2022/02/06 14:36:40;;;;;;;0.55;0.40;;;7.40;99.90;;;;;;4969104;29;20091;-75
2022/02/06 14:39:05;;;;;;;1.23;0.50;;;7.30;99.90;;;;;;4979113;28;20043;-75
2022/02/06 14:41:59;;;;;;;2.25;0.77;;;7.30;99.90;;;;;;4971795;29;20067;-74
2022/02/06 14:44:28;;;;;;;0.57;0.40;;;7.30;99.90;;;;;;4974926;28;20035;-76
2022/02/06 14:46:53;;;;;;;0.60;0.60;;;7.30;99.90;;;;;;4993586;28;20039;-73
2022/02/06 14:49:19;;;;;;;0.70;0.40;;;7.30;99.90;;;;;;4972675;29;20054;-73
2022/02/06 14:51:48;;;;;;;1.75;0.50;;;7.20;99.90;;;;;;4973777;29;20035;-74
2022/02/06 14:54:20;;;;;;;1.33;0.63;;;7.10;99.90;;;;;;4976209;28;20090;-75
2022/02/06 14:56:48;;;;;;;0.55;0.32;;;7.20;99.90;;;;;;4974664;28;20035;-76
2022/02/06 14:59:14;;;;;;;0.52;0.30;;;7.10;99.90;;;;;;4976031;28;20026;-75
2022/02/06 15:01:39;;;;;;;0.63;0.40;;;7.00;99.90;;;;;;4974769;29;20051;-75
2022/02/06 15:04:05;;;;;;;1.58;0.63;;;7.00;99.90;;;;;;4970902;28;20041;-76
2022/02/06 15:06:35;;;;;;;0.73;0.52;;;7.00;99.90;;;;;;4976921;28;20046;-75
2022/02/06 15:09:01;;;;;;;0.75;0.47;;;7.00;99.90;;;;;;4974513;29;20031;-75
2022/02/06 15:11:27;;;;;;;1.60;0.50;;;7.00;99.90;;;;;;4968572;28;20043;-75
2022/02/06 15:13:52;;;;;;;0.65;0.50;;;6.90;99.90;;;;;;4970517;28;20035;-73
2022/02/06 15:16:23;;;;;;;0.60;0.40;;;6.90;99.90;;;;;;4973964;28;20032;-77
2022/02/06 15:19:00;;;;;;;0.40;0.40;;;6.90;99.90;;;;;;4967015;28;20031;-79
2022/02/06 15:21:26;;;;;;;0.30;0.30;;;6.90;99.90;;;;;;4968280;28;20049;-79
2022/02/06 15:23:52;;;;;;;0.40;0.40;;;6.80;99.90;;;;;;4967285;28;20031;-79
2022/02/06 15:26:17;;;;;;;0.70;0.40;;;6.70;99.90;;;;;;4967410;28;20058;-80
2022/02/06 15:28:45;;;;;;;1.95;0.45;;;6.70;99.90;;;;;;4967750;28;20114;-79
2022/02/06 15:31:11;;;;;;;0.60;0.40;;;6.60;99.90;;;;;;4961383;28;20046;-79
2022/02/06 15:33:37;;;;;;;0.25;0.25;;;6.60;99.90;;;;;;4958926;28;20390;-73
2022/02/06 15:36:04;;;;;;;0.93;0.40;;;6.70;99.90;;;;;;4951759;29;20043;-74
2022/02/06 15:38:32;;;;;;;0.65;0.30;;;6.60;99.90;;;;;;4948110;29;20085;-76
2022/02/06 15:40:59;;;;;;;0.35;0.35;;;6.50;99.90;;;;;;4956841;28;20028;-72
2022/02/06 15:43:25;;;;;;;0.47;0.40;;;6.60;99.90;;;;;;4958147;28;20035;-73
2022/02/06 15:45:51;;;;;;;0.40;0.40;;;6.50;99.90;;;;;;4958780;29;20026;-71